Stolt Effort — ZCSP6 — position and weather

sailwx.info

Track history (hours):
 
Tides and Currents Weather Stations Pressure Air Temp Water Temp Dewpoint Dewpoint Depression Visibility Wind Speed Wind Dir Waves Ship Positions

Stolt Effort

Last reported at 2016-Jul-26 04:26 UTC. Time now 2016-Jul-26 06:29 UTC.
Position N 48°54' W 005°21'.

Length 176 m; draft 11.8 m.

Type: Ship (hazmat cat A). MMSI: 319445000.

Date/timePositionNaut miles runAvg speedWind from/ knotsBaromVisibWave heightAir tempDewpointWater temp
2016-Jul-26 04:26N 48°54' W 005°21'1213.7
2016-Jul-26 03:33N 48°48' W 005°37'2613.0
2016-Jul-26 01:33N 48°26' W 005°56'57213.2
2016-Jul-24 06:17N 39°20' W 009°56'1014.3
2016-Jul-24 05:33N 39°10' W 009°56'1414.4
2016-Jul-24 04:33N 38°55' W 009°56'1514.5
2016-Jul-24 03:33N 38°41' W 009°56'1414.3
2016-Jul-24 02:34N 38°27' W 009°51'1414.0
2016-Jul-24 01:33N 38°13' W 009°47'1414.0
2016-Jul-24 00:33N 37°60' W 009°44'1414.3
2016-Jul-23 23:33N 37°46' W 009°40'1413.8
2016-Jul-23 22:33N 37°32' W 009°36'1414.0
2016-Jul-23 21:33N 37°19' W 009°31'1414.1
2016-Jul-23 20:33N 37°05' W 009°27'1414.1
2016-Jul-23 19:32N 36°51' W 009°23'1414.2
2016-Jul-23 18:33N 36°41' W 009°11'1414.4
2016-Jul-23 17:33N 36°37' W 008°54'1413.7
2016-Jul-23 16:33N 36°32' W 008°38'1414.4
2016-Jul-23 15:34N 36°28' W 008°21'1514.6
2016-Jul-23 14:33N 36°24' W 008°04'1514.7
2016-Jul-23 13:33N 36°19' W 007°46'12513.9
2016-Jul-23 04:33N 36°02' W 005°13'12014.7
2016-Jul-22 20:24N 36°20' W 002°46'1214.8
2016-Jul-22 19:33N 36°24' W 002°31'1715.0
2016-Jul-22 18:26N 36°26' W 002°10'1314.6
2016-Jul-22 17:31N 36°28' W 001°54'1414.9
2016-Jul-22 16:33N 36°32' W 001°37'1514.4
2016-Jul-22 15:33N 36°35' W 001°19'1513.8
2016-Jul-22 14:29N 36°38' W 001°01'1313.9
2016-Jul-22 13:33N 36°41' W 000°45'4213.9
2016-Jul-22 10:33N 36°49' E 000°06'2014.9
2016-Jul-22 09:11N 36°54' E 000°30'1215.5
2016-Jul-22 08:24N 36°56' E 000°45'1315.4
2016-Jul-22 07:33N 36°59' E 001°01'3015.1
2016-Jul-22 05:33N 37°05' E 001°38'1514.8
2016-Jul-22 04:33N 37°08' E 001°56'1514.7
2016-Jul-22 03:33N 37°12' E 002°14'1514.6
2016-Jul-22 02:33N 37°15' E 002°32'1514.9
2016-Jul-22 01:33N 37°18' E 002°51'1615.3
2016-Jul-22 00:29N 37°21' E 003°11'1314.4
2016-Jul-21 23:33N 37°24' E 003°27'1414.0
2016-Jul-21 22:33N 37°27' E 003°44'1514.5
2016-Jul-21 21:32N 37°30' E 004°02'3115.4
2016-Jul-21 19:33N 37°37' E 004°40'1515.1
2016-Jul-21 18:33N 37°40' E 004°59'1515.2
2016-Jul-21 17:33N 37°43' E 005°18'15515.0
2016-Jul-21 07:13N 37°45' E 008°33'1015.3
2016-Jul-21 06:33N 37°44' E 008°46'2914.6
2016-Jul-21 04:33N 37°42' E 009°23'1514.3
2016-Jul-21 03:32N 37°41' E 009°41'2914.6
2016-Jul-21 01:33N 37°38' E 010°18'1514.9
2016-Jul-21 00:33N 37°36' E 010°36'1515.0
2016-Jul-20 23:34N 37°33' E 010°55'1515.0
2016-Jul-20 22:33N 37°26' E 011°12'1715.2
2016-Jul-20 21:27N 37°18' E 011°30'1415.7
2016-Jul-20 20:34N 37°11' E 011°46'1515.4
2016-Jul-20 19:34N 37°04' E 012°03'1515.3
2016-Jul-20 18:33N 36°59' E 012°21'1514.7
2016-Jul-20 17:34N 36°55' E 012°38'1414.1
2016-Jul-20 16:33N 36°51' E 012°55'1413.6
2016-Jul-20 15:33N 36°47' E 013°12'1313.4
2016-Jul-20 14:33N 36°44' E 013°28'1313.1
2016-Jul-20 13:33N 36°40' E 013°43'1313.5
2016-Jul-20 12:34N 36°36' E 013°60'1413.7
2016-Jul-20 11:33N 36°32' E 014°16'1514.7
2016-Jul-20 10:33N 36°28' E 014°33'1514.8
2016-Jul-20 09:33N 36°24' E 014°51'  
2016-Jul-17 23:26N 32°08' E 030°49'1214.3
2016-Jul-17 22:33N 32°04' E 031°03'1613.8
2016-Jul-17 21:23N 31°58' E 031°21'1113.7
2016-Jul-17 20:33N 31°54' E 031°34'1413.8
2016-Jul-17 19:33N 31°50' E 031°49'1513.5
2016-Jul-17 18:24N 31°41' E 032°04'  
Track history (hours):
 
Tides and Currents Weather Stations Pressure Air Temp Water Temp Dewpoint Dewpoint Depression Visibility Wind Speed Wind Dir Waves Ship Positions

Stolt Effort

Last reported at 2016-Jul-26 04:26 UTC. Time now 2016-Jul-26 06:29 UTC.
Position N 48°54' W 005°21'.

Length 176 m; draft 11.8 m.

Type: Ship (hazmat cat A). MMSI: 319445000.

Date/timePositionNaut miles runAvg speedWind from/ knotsBaromVisibWave heightAir tempDewpointWater temp
2016-Jul-26 04:26N 48°54' W 005°21'1213.7
2016-Jul-26 03:33N 48°48' W 005°37'2613.0
2016-Jul-26 01:33N 48°26' W 005°56'57213.2
2016-Jul-24 06:17N 39°20' W 009°56'1014.3
2016-Jul-24 05:33N 39°10' W 009°56'1414.4
2016-Jul-24 04:33N 38°55' W 009°56'1514.5
2016-Jul-24 03:33N 38°41' W 009°56'1414.3
2016-Jul-24 02:34N 38°27' W 009°51'1414.0
2016-Jul-24 01:33N 38°13' W 009°47'1414.0
2016-Jul-24 00:33N 37°60' W 009°44'1414.3
2016-Jul-23 23:33N 37°46' W 009°40'1413.8
2016-Jul-23 22:33N 37°32' W 009°36'1414.0
2016-Jul-23 21:33N 37°19' W 009°31'1414.1
2016-Jul-23 20:33N 37°05' W 009°27'1414.1
2016-Jul-23 19:32N 36°51' W 009°23'1414.2
2016-Jul-23 18:33N 36°41' W 009°11'1414.4
2016-Jul-23 17:33N 36°37' W 008°54'1413.7
2016-Jul-23 16:33N 36°32' W 008°38'1414.4
2016-Jul-23 15:34N 36°28' W 008°21'1514.6
2016-Jul-23 14:33N 36°24' W 008°04'1514.7
2016-Jul-23 13:33N 36°19' W 007°46'12513.9
2016-Jul-23 04:33N 36°02' W 005°13'12014.7
2016-Jul-22 20:24N 36°20' W 002°46'1214.8
2016-Jul-22 19:33N 36°24' W 002°31'1715.0
2016-Jul-22 18:26N 36°26' W 002°10'1314.6
2016-Jul-22 17:31N 36°28' W 001°54'1414.9
2016-Jul-22 16:33N 36°32' W 001°37'1514.4
2016-Jul-22 15:33N 36°35' W 001°19'1513.8
2016-Jul-22 14:29N 36°38' W 001°01'1313.9
2016-Jul-22 13:33N 36°41' W 000°45'4213.9
2016-Jul-22 10:33N 36°49' E 000°06'2014.9
2016-Jul-22 09:11N 36°54' E 000°30'1215.5
2016-Jul-22 08:24N 36°56' E 000°45'1315.4
2016-Jul-22 07:33N 36°59' E 001°01'3015.1
2016-Jul-22 05:33N 37°05' E 001°38'1514.8
2016-Jul-22 04:33N 37°08' E 001°56'1514.7
2016-Jul-22 03:33N 37°12' E 002°14'1514.6
2016-Jul-22 02:33N 37°15' E 002°32'1514.9
2016-Jul-22 01:33N 37°18' E 002°51'1615.3
2016-Jul-22 00:29N 37°21' E 003°11'1314.4
2016-Jul-21 23:33N 37°24' E 003°27'1414.0
2016-Jul-21 22:33N 37°27' E 003°44'1514.5
2016-Jul-21 21:32N 37°30' E 004°02'3115.4
2016-Jul-21 19:33N 37°37' E 004°40'1515.1
2016-Jul-21 18:33N 37°40' E 004°59'1515.2
2016-Jul-21 17:33N 37°43' E 005°18'15515.0
2016-Jul-21 07:13N 37°45' E 008°33'1015.3
2016-Jul-21 06:33N 37°44' E 008°46'2914.6
2016-Jul-21 04:33N 37°42' E 009°23'1514.3
2016-Jul-21 03:32N 37°41' E 009°41'2914.6
2016-Jul-21 01:33N 37°38' E 010°18'1514.9
2016-Jul-21 00:33N 37°36' E 010°36'1515.0
2016-Jul-20 23:34N 37°33' E 010°55'1515.0
2016-Jul-20 22:33N 37°26' E 011°12'1715.2
2016-Jul-20 21:27N 37°18' E 011°30'1415.7
2016-Jul-20 20:34N 37°11' E 011°46'1515.4
2016-Jul-20 19:34N 37°04' E 012°03'1515.3
2016-Jul-20 18:33N 36°59' E 012°21'1514.7
2016-Jul-20 17:34N 36°55' E 012°38'1414.1
2016-Jul-20 16:33N 36°51' E 012°55'1413.6
2016-Jul-20 15:33N 36°47' E 013°12'1313.4
2016-Jul-20 14:33N 36°44' E 013°28'1313.1
2016-Jul-20 13:33N 36°40' E 013°43'1313.5
2016-Jul-20 12:34N 36°36' E 013°60'1413.7
2016-Jul-20 11:33N 36°32' E 014°16'1514.7
2016-Jul-20 10:33N 36°28' E 014°33'1514.8
2016-Jul-20 09:33N 36°24' E 014°51'  
2016-Jul-17 23:26N 32°08' E 030°49'1214.3
2016-Jul-17 22:33N 32°04' E 031°03'1613.8
2016-Jul-17 21:23N 31°58' E 031°21'1113.7
2016-Jul-17 20:33N 31°54' E 031°34'1413.8
2016-Jul-17 19:33N 31°50' E 031°49'1513.5
2016-Jul-17 18:24N 31°41' E 032°04'  

Dump ship's entire track history